sensor_id;sensor_type;location;lat;lon;timestamp;P1;durP1;ratioP1;P2;durP2;ratioP2
57969;SDS011;43777;42.656;23.264;2022-09-17T00:01:03;8.65;;;3.30;;
57969;SDS011;43777;42.656;23.264;2022-09-17T00:03:29;5.30;;;3.30;;
57969;SDS011;43777;42.656;23.264;2022-09-17T00:06:01;6.88;;;3.40;;
57969;SDS011;43777;42.656;23.264;2022-09-17T00:08:27;11.07;;;3.38;;
57969;SDS011;43777;42.656;23.264;2022-09-17T00:10:54;6.47;;;3.47;;
57969;SDS011;43777;42.656;23.264;2022-09-17T00:13:20;6.55;;;3.28;;
57969;SDS011;43777;42.656;23.264;2022-09-17T00:15:47;6.25;;;3.20;;
57969;SDS011;43777;42.656;23.264;2022-09-17T00:18:15;9.77;;;3.58;;
57969;SDS011;43777;42.656;23.264;2022-09-17T00:20:42;6.68;;;3.42;;
57969;SDS011;43777;42.656;23.264;2022-09-17T00:23:08;8.75;;;3.45;;
57969;SDS011;43777;42.656;23.264;2022-09-17T00:25:38;7.80;;;2.97;;
57969;SDS011;43777;42.656;23.264;2022-09-17T00:28:04;9.35;;;3.17;;
57969;SDS011;43777;42.656;23.264;2022-09-17T00:30:30;8.15;;;3.55;;
57969;SDS011;43777;42.656;23.264;2022-09-17T00:32:56;7.75;;;3.30;;
57969;SDS011;43777;42.656;23.264;2022-09-17T00:35:23;9.65;;;3.50;;
57969;SDS011;43777;42.656;23.264;2022-09-17T00:37:49;7.35;;;3.50;;
57969;SDS011;43777;42.656;23.264;2022-09-17T00:40:15;6.97;;;3.50;;
57969;SDS011;43777;42.656;23.264;2022-09-17T00:42:41;7.07;;;3.05;;
57969;SDS011;43777;42.656;23.264;2022-09-17T00:45:09;5.85;;;3.30;;
57969;SDS011;43777;42.656;23.264;2022-09-17T00:47:37;4.35;;;3.10;;
57969;SDS011;43777;42.656;23.264;2022-09-17T00:50:06;9.30;;;4.20;;
57969;SDS011;43777;42.656;23.264;2022-09-17T00:52:39;8.13;;;3.55;;
57969;SDS011;43777;42.656;23.264;2022-09-17T00:55:08;5.60;;;3.75;;
57969;SDS011;43777;42.656;23.264;2022-09-17T00:57:37;8.70;;;3.85;;
57969;SDS011;43777;42.656;23.264;2022-09-17T01:00:04;7.65;;;3.72;;
57969;SDS011;43777;42.656;23.264;2022-09-17T01:02:32;7.57;;;3.80;;
57969;SDS011;43777;42.656;23.264;2022-09-17T01:04:58;7.53;;;4.00;;
57969;SDS011;43777;42.656;23.264;2022-09-17T01:07:34;9.38;;;3.97;;
57969;SDS011;43777;42.656;23.264;2022-09-17T01:15:21;9.02;;;3.88;;
57969;SDS011;43777;42.656;23.264;2022-09-17T01:23:36;7.70;;;4.22;;
57969;SDS011;43777;42.656;23.264;2022-09-17T01:31:28;6.30;;;3.47;;
57969;SDS011;43777;42.656;23.264;2022-09-17T01:39:02;10.13;;;4.05;;
57969;SDS011;43777;42.656;23.264;2022-09-17T01:41:34;6.47;;;3.90;;
57969;SDS011;43777;42.656;23.264;2022-09-17T01:44:05;7.32;;;4.75;;
57969;SDS011;43777;42.656;23.264;2022-09-17T01:46:34;9.75;;;4.68;;
57969;SDS011;43777;42.656;23.264;2022-09-17T01:49:01;9.35;;;4.82;;
57969;SDS011;43777;42.656;23.264;2022-09-17T01:51:31;9.75;;;5.47;;
57969;SDS011;43777;42.656;23.264;2022-09-17T01:54:15;9.98;;;5.25;;
57969;SDS011;43777;42.656;23.264;2022-09-17T01:56:58;12.88;;;7.10;;
57969;SDS011;43777;42.656;23.264;2022-09-17T01:59:42;7.53;;;5.53;;
57969;SDS011;43777;42.656;23.264;2022-09-17T02:02:11;10.50;;;6.15;;
57969;SDS011;43777;42.656;23.264;2022-09-17T02:04:49;12.68;;;6.68;;
57969;SDS011;43777;42.656;23.264;2022-09-17T02:07:18;10.30;;;6.18;;
57969;SDS011;43777;42.656;23.264;2022-09-17T02:09:55;10.63;;;7.05;;
57969;SDS011;43777;42.656;23.264;2022-09-17T02:12:26;10.05;;;7.28;;
57969;SDS011;43777;42.656;23.264;2022-09-17T02:14:53;10.68;;;6.97;;
57969;SDS011;43777;42.656;23.264;2022-09-17T02:19:54;13.10;;;5.70;;
57969;SDS011;43777;42.656;23.264;2022-09-17T02:25:03;9.00;;;3.10;;
57969;SDS011;43777;42.656;23.264;2022-09-17T02:30:16;10.07;;;2.35;;
57969;SDS011;43777;42.656;23.264;2022-09-17T02:32:42;9.55;;;3.08;;
57969;SDS011;43777;42.656;23.264;2022-09-17T02:35:09;12.48;;;2.88;;
57969;SDS011;43777;42.656;23.264;2022-09-17T02:37:38;10.52;;;2.88;;
57969;SDS011;43777;42.656;23.264;2022-09-17T02:40:04;11.57;;;4.88;;
57969;SDS011;43777;42.656;23.264;2022-09-17T02:42:47;10.15;;;5.60;;
57969;SDS011;43777;42.656;23.264;2022-09-17T02:50:29;9.60;;;5.97;;
57969;SDS011;43777;42.656;23.264;2022-09-17T02:53:10;9.68;;;5.68;;
57969;SDS011;43777;42.656;23.264;2022-09-17T02:58:25;9.88;;;6.30;;
57969;SDS011;43777;42.656;23.264;2022-09-17T03:00:53;8.57;;;5.82;;
57969;SDS011;43777;42.656;23.264;2022-09-17T03:03:22;8.35;;;5.18;;
57969;SDS011;43777;42.656;23.264;2022-09-17T03:05:51;10.73;;;5.53;;
57969;SDS011;43777;42.656;23.264;2022-09-17T03:08:18;9.35;;;5.85;;
57969;SDS011;43777;42.656;23.264;2022-09-17T03:10:45;11.68;;;6.35;;
57969;SDS011;43777;42.656;23.264;2022-09-17T03:13:14;8.55;;;6.75;;
57969;SDS011;43777;42.656;23.264;2022-09-17T03:15:40;9.70;;;6.72;;
57969;SDS011;43777;42.656;23.264;2022-09-17T03:18:06;11.15;;;7.18;;
57969;SDS011;43777;42.656;23.264;2022-09-17T03:20:32;9.20;;;6.63;;
57969;SDS011;43777;42.656;23.264;2022-09-17T03:22:58;10.88;;;7.07;;
57969;SDS011;43777;42.656;23.264;2022-09-17T03:25:24;12.95;;;7.53;;
57969;SDS011;43777;42.656;23.264;2022-09-17T03:27:50;9.93;;;6.88;;
57969;SDS011;43777;42.656;23.264;2022-09-17T03:30:17;9.27;;;6.13;;
57969;SDS011;43777;42.656;23.264;2022-09-17T03:32:43;9.43;;;5.13;;
57969;SDS011;43777;42.656;23.264;2022-09-17T03:35:09;8.82;;;4.68;;
57969;SDS011;43777;42.656;23.264;2022-09-17T03:37:35;8.48;;;4.53;;
57969;SDS011;43777;42.656;23.264;2022-09-17T03:40:01;7.55;;;4.78;;
57969;SDS011;43777;42.656;23.264;2022-09-17T03:42:27;8.48;;;4.68;;
57969;SDS011;43777;42.656;23.264;2022-09-17T03:44:53;9.45;;;5.32;;
57969;SDS011;43777;42.656;23.264;2022-09-17T03:47:19;8.85;;;4.85;;
57969;SDS011;43777;42.656;23.264;2022-09-17T03:49:45;9.52;;;4.38;;
57969;SDS011;43777;42.656;23.264;2022-09-17T03:52:11;7.10;;;4.47;;
57969;SDS011;43777;42.656;23.264;2022-09-17T03:54:37;7.95;;;4.63;;
57969;SDS011;43777;42.656;23.264;2022-09-17T03:57:03;11.27;;;4.82;;
57969;SDS011;43777;42.656;23.264;2022-09-17T03:59:30;7.82;;;3.90;;
57969;SDS011;43777;42.656;23.264;2022-09-17T04:01:56;5.30;;;3.78;;
57969;SDS011;43777;42.656;23.264;2022-09-17T04:04:22;7.75;;;4.30;;
57969;SDS011;43777;42.656;23.264;2022-09-17T04:06:48;6.22;;;3.53;;
57969;SDS011;43777;42.656;23.264;2022-09-17T04:09:14;4.50;;;3.90;;
57969;SDS011;43777;42.656;23.264;2022-09-17T04:11:40;9.60;;;4.05;;
57969;SDS011;43777;42.656;23.264;2022-09-17T04:14:06;6.20;;;4.00;;
57969;SDS011;43777;42.656;23.264;2022-09-17T04:16:32;5.78;;;4.22;;
57969;SDS011;43777;42.656;23.264;2022-09-17T04:18:58;8.48;;;3.85;;
57969;SDS011;43777;42.656;23.264;2022-09-17T04:21:24;7.65;;;4.40;;
57969;SDS011;43777;42.656;23.264;2022-09-17T04:23:50;7.93;;;4.72;;
57969;SDS011;43777;42.656;23.264;2022-09-17T04:26:16;12.35;;;5.43;;
57969;SDS011;43777;42.656;23.264;2022-09-17T04:28:42;13.18;;;5.93;;
57969;SDS011;43777;42.656;23.264;2022-09-17T04:31:08;8.55;;;5.65;;
57969;SDS011;43777;42.656;23.264;2022-09-17T04:33:34;8.93;;;6.15;;
57969;SDS011;43777;42.656;23.264;2022-09-17T04:36:01;15.20;;;5.65;;
57969;SDS011;43777;42.656;23.264;2022-09-17T04:38:27;9.65;;;4.53;;
57969;SDS011;43777;42.656;23.264;2022-09-17T04:40:53;9.27;;;3.63;;
57969;SDS011;43777;42.656;23.264;2022-09-17T04:43:21;17.33;;;3.92;;
57969;SDS011;43777;42.656;23.264;2022-09-17T04:45:47;9.57;;;3.35;;
57969;SDS011;43777;42.656;23.264;2022-09-17T04:48:14;9.88;;;3.75;;
57969;SDS011;43777;42.656;23.264;2022-09-17T04:50:41;9.02;;;2.85;;
57969;SDS011;43777;42.656;23.264;2022-09-17T04:53:07;11.23;;;3.63;;
57969;SDS011;43777;42.656;23.264;2022-09-17T04:55:33;10.35;;;2.90;;
57969;SDS011;43777;42.656;23.264;2022-09-17T04:57:59;11.32;;;3.08;;
57969;SDS011;43777;42.656;23.264;2022-09-17T05:00:25;11.45;;;3.33;;
57969;SDS011;43777;42.656;23.264;2022-09-17T05:02:52;7.47;;;3.40;;
57969;SDS011;43777;42.656;23.264;2022-09-17T05:05:19;8.70;;;3.17;;
57969;SDS011;43777;42.656;23.264;2022-09-17T05:07:45;9.18;;;2.97;;
57969;SDS011;43777;42.656;23.264;2022-09-17T05:10:12;10.98;;;3.08;;
57969;SDS011;43777;42.656;23.264;2022-09-17T05:12:39;10.65;;;3.58;;
57969;SDS011;43777;42.656;23.264;2022-09-17T05:15:05;13.25;;;3.28;;
57969;SDS011;43777;42.656;23.264;2022-09-17T05:17:31;9.55;;;3.20;;
57969;SDS011;43777;42.656;23.264;2022-09-17T05:19:57;10.38;;;2.92;;
57969;SDS011;43777;42.656;23.264;2022-09-17T05:22:23;6.32;;;2.50;;
57969;SDS011;43777;42.656;23.264;2022-09-17T05:24:49;7.55;;;2.58;;
57969;SDS011;43777;42.656;23.264;2022-09-17T05:27:15;8.98;;;2.67;;
57969;SDS011;43777;42.656;23.264;2022-09-17T05:29:41;7.40;;;2.08;;
57969;SDS011;43777;42.656;23.264;2022-09-17T05:32:09;5.05;;;2.00;;
57969;SDS011;43777;42.656;23.264;2022-09-17T05:34:35;6.30;;;1.77;;
57969;SDS011;43777;42.656;23.264;2022-09-17T05:37:01;4.68;;;1.55;;
57969;SDS011;43777;42.656;23.264;2022-09-17T05:39:27;8.25;;;1.98;;
57969;SDS011;43777;42.656;23.264;2022-09-17T05:41:53;6.80;;;1.67;;
57969;SDS011;43777;42.656;23.264;2022-09-17T05:44:20;4.78;;;1.60;;
57969;SDS011;43777;42.656;23.264;2022-09-17T05:46:46;6.20;;;1.33;;
57969;SDS011;43777;42.656;23.264;2022-09-17T05:49:12;4.40;;;1.40;;
57969;SDS011;43777;42.656;23.264;2022-09-17T05:51:41;4.05;;;1.48;;
57969;SDS011;43777;42.656;23.264;2022-09-17T05:54:07;4.40;;;1.50;;
57969;SDS011;43777;42.656;23.264;2022-09-17T05:56:34;6.07;;;1.60;;
57969;SDS011;43777;42.656;23.264;2022-09-17T05:59:00;2.35;;;1.38;;
57969;SDS011;43777;42.656;23.264;2022-09-17T06:01:26;6.15;;;1.73;;
57969;SDS011;43777;42.656;23.264;2022-09-17T06:03:52;4.55;;;1.65;;
57969;SDS011;43777;42.656;23.264;2022-09-17T06:06:18;3.25;;;1.08;;
57969;SDS011;43777;42.656;23.264;2022-09-17T06:08:44;5.65;;;1.50;;
57969;SDS011;43777;42.656;23.264;2022-09-17T06:11:10;3.67;;;1.35;;
57969;SDS011;43777;42.656;23.264;2022-09-17T06:13:37;2.40;;;1.10;;
57969;SDS011;43777;42.656;23.264;2022-09-17T06:16:03;4.40;;;1.00;;
57969;SDS011;43777;42.656;23.264;2022-09-17T06:18:29;6.63;;;0.77;;
57969;SDS011;43777;42.656;23.264;2022-09-17T06:20:56;3.38;;;1.15;;
57969;SDS011;43777;42.656;23.264;2022-09-17T06:23:22;3.42;;;1.02;;
57969;SDS011;43777;42.656;23.264;2022-09-17T06:25:49;7.45;;;1.98;;
57969;SDS011;43777;42.656;23.264;2022-09-17T06:28:15;3.70;;;2.15;;
57969;SDS011;43777;42.656;23.264;2022-09-17T06:30:41;6.05;;;2.35;;
57969;SDS011;43777;42.656;23.264;2022-09-17T06:33:07;7.35;;;2.40;;
57969;SDS011;43777;42.656;23.264;2022-09-17T06:35:33;6.25;;;2.50;;
57969;SDS011;43777;42.656;23.264;2022-09-17T06:37:59;8.95;;;3.03;;
57969;SDS011;43777;42.656;23.264;2022-09-17T06:40:25;7.68;;;2.75;;
57969;SDS011;43777;42.656;23.264;2022-09-17T06:42:55;8.68;;;2.78;;
57969;SDS011;43777;42.656;23.264;2022-09-17T06:45:23;5.85;;;2.88;;
57969;SDS011;43777;42.656;23.264;2022-09-17T06:47:49;9.52;;;2.47;;
57969;SDS011;43777;42.656;23.264;2022-09-17T06:50:15;9.02;;;2.80;;
57969;SDS011;43777;42.656;23.264;2022-09-17T06:52:51;5.22;;;2.55;;
57969;SDS011;43777;42.656;23.264;2022-09-17T06:55:18;6.10;;;2.67;;
57969;SDS011;43777;42.656;23.264;2022-09-17T06:57:44;8.48;;;3.38;;
57969;SDS011;43777;42.656;23.264;2022-09-17T07:00:11;8.15;;;3.55;;
57969;SDS011;43777;42.656;23.264;2022-09-17T07:02:37;7.03;;;3.13;;
57969;SDS011;43777;42.656;23.264;2022-09-17T07:05:03;7.93;;;2.70;;
57969;SDS011;43777;42.656;23.264;2022-09-17T07:07:30;5.22;;;2.60;;
57969;SDS011;43777;42.656;23.264;2022-09-17T07:09:56;8.55;;;2.60;;
57969;SDS011;43777;42.656;23.264;2022-09-17T07:12:22;5.72;;;2.47;;
57969;SDS011;43777;42.656;23.264;2022-09-17T07:14:48;8.15;;;2.67;;
57969;SDS011;43777;42.656;23.264;2022-09-17T07:17:14;11.32;;;5.75;;
57969;SDS011;43777;42.656;23.264;2022-09-17T07:19:40;10.95;;;3.78;;
57969;SDS011;43777;42.656;23.264;2022-09-17T07:22:06;7.88;;;3.10;;
57969;SDS011;43777;42.656;23.264;2022-09-17T07:24:33;9.13;;;3.33;;
57969;SDS011;43777;42.656;23.264;2022-09-17T07:26:59;8.48;;;3.55;;
57969;SDS011;43777;42.656;23.264;2022-09-17T07:29:25;9.75;;;3.72;;
57969;SDS011;43777;42.656;23.264;2022-09-17T07:31:52;8.98;;;3.53;;
57969;SDS011;43777;42.656;23.264;2022-09-17T07:34:18;9.25;;;4.53;;
57969;SDS011;43777;42.656;23.264;2022-09-17T07:36:44;11.52;;;4.60;;
57969;SDS011;43777;42.656;23.264;2022-09-17T07:39:10;7.95;;;4.50;;
57969;SDS011;43777;42.656;23.264;2022-09-17T07:41:37;8.40;;;4.68;;
57969;SDS011;43777;42.656;23.264;2022-09-17T07:44:04;8.85;;;3.95;;
57969;SDS011;43777;42.656;23.264;2022-09-17T07:46:33;9.07;;;4.07;;
57969;SDS011;43777;42.656;23.264;2022-09-17T07:48:59;11.13;;;3.72;;
57969;SDS011;43777;42.656;23.264;2022-09-17T07:51:26;8.57;;;3.72;;
57969;SDS011;43777;42.656;23.264;2022-09-17T07:53:55;6.72;;;3.65;;
57969;SDS011;43777;42.656;23.264;2022-09-17T07:56:22;13.27;;;4.93;;
57969;SDS011;43777;42.656;23.264;2022-09-17T07:58:48;7.50;;;3.95;;
57969;SDS011;43777;42.656;23.264;2022-09-17T08:01:15;9.60;;;4.45;;
57969;SDS011;43777;42.656;23.264;2022-09-17T08:03:41;8.88;;;4.85;;
57969;SDS011;43777;42.656;23.264;2022-09-17T08:06:12;10.18;;;6.10;;
57969;SDS011;43777;42.656;23.264;2022-09-17T08:08:38;10.02;;;5.80;;
57969;SDS011;43777;42.656;23.264;2022-09-17T08:11:09;12.90;;;6.57;;
57969;SDS011;43777;42.656;23.264;2022-09-17T08:13:35;14.57;;;6.50;;
57969;SDS011;43777;42.656;23.264;2022-09-17T08:16:08;9.65;;;6.15;;
57969;SDS011;43777;42.656;23.264;2022-09-17T08:18:37;12.23;;;6.00;;
57969;SDS011;43777;42.656;23.264;2022-09-17T08:21:03;17.08;;;7.38;;
57969;SDS011;43777;42.656;23.264;2022-09-17T08:23:30;11.45;;;6.28;;
57969;SDS011;43777;42.656;23.264;2022-09-17T08:25:57;13.15;;;6.68;;
57969;SDS011;43777;42.656;23.264;2022-09-17T08:28:26;9.43;;;5.90;;
57969;SDS011;43777;42.656;23.264;2022-09-17T08:30:53;11.45;;;6.80;;
57969;SDS011;43777;42.656;23.264;2022-09-17T08:33:20;10.43;;;5.75;;
57969;SDS011;43777;42.656;23.264;2022-09-17T08:35:52;15.52;;;6.80;;
57969;SDS011;43777;42.656;23.264;2022-09-17T08:38:19;17.40;;;7.00;;
57969;SDS011;43777;42.656;23.264;2022-09-17T08:43:43;12.23;;;6.03;;
57969;SDS011;43777;42.656;23.264;2022-09-17T08:46:11;11.93;;;5.88;;
57969;SDS011;43777;42.656;23.264;2022-09-17T08:48:42;18.70;;;8.75;;
57969;SDS011;43777;42.656;23.264;2022-09-17T08:51:34;23.05;;;8.10;;
57969;SDS011;43777;42.656;23.264;2022-09-17T08:56:30;13.27;;;5.68;;
57969;SDS011;43777;42.656;23.264;2022-09-17T09:01:34;9.10;;;5.35;;
57969;SDS011;43777;42.656;23.264;2022-09-17T09:06:35;10.63;;;4.85;;
57969;SDS011;43777;42.656;23.264;2022-09-17T09:09:08;11.20;;;4.28;;
57969;SDS011;43777;42.656;23.264;2022-09-17T09:11:37;11.15;;;5.60;;
57969;SDS011;43777;42.656;23.264;2022-09-17T09:16:40;9.90;;;4.90;;
57969;SDS011;43777;42.656;23.264;2022-09-17T09:19:23;6.68;;;4.38;;
57969;SDS011;43777;42.656;23.264;2022-09-17T09:24:23;8.95;;;4.70;;
57969;SDS011;43777;42.656;23.264;2022-09-17T09:27:08;11.82;;;5.10;;
57969;SDS011;43777;42.656;23.264;2022-09-17T09:32:44;10.23;;;4.25;;
57969;SDS011;43777;42.656;23.264;2022-09-17T09:35:20;7.28;;;4.75;;
57969;SDS011;43777;42.656;23.264;2022-09-17T09:42:52;9.73;;;5.07;;
57969;SDS011;43777;42.656;23.264;2022-09-17T09:48:16;14.77;;;5.72;;
57969;SDS011;43777;42.656;23.264;2022-09-17T09:58:40;15.07;;;7.30;;
57969;SDS011;43777;42.656;23.264;2022-09-17T10:01:11;12.68;;;6.82;;
57969;SDS011;43777;42.656;23.264;2022-09-17T10:03:38;11.65;;;6.65;;
57969;SDS011;43777;42.656;23.264;2022-09-17T10:06:06;13.40;;;8.10;;
57969;SDS011;43777;42.656;23.264;2022-09-17T10:08:34;11.93;;;6.10;;
57969;SDS011;43777;42.656;23.264;2022-09-17T10:13:37;9.57;;;5.15;;
57969;SDS011;43777;42.656;23.264;2022-09-17T10:16:19;8.82;;;5.90;;
57969;SDS011;43777;42.656;23.264;2022-09-17T10:18:46;12.15;;;6.43;;
57969;SDS011;43777;42.656;23.264;2022-09-17T10:23:45;11.88;;;6.53;;
57969;SDS011;43777;42.656;23.264;2022-09-17T10:29:14;12.05;;;5.75;;
57969;SDS011;43777;42.656;23.264;2022-09-17T10:31:45;10.30;;;6.07;;
57969;SDS011;43777;42.656;23.264;2022-09-17T10:34:22;3.40;;;2.22;;
57969;SDS011;43777;42.656;23.264;2022-09-17T10:36:49;2.25;;;1.30;;
57969;SDS011;43777;42.656;23.264;2022-09-17T10:41:52;2.15;;;1.10;;
57969;SDS011;43777;42.656;23.264;2022-09-17T10:44:22;1.38;;;1.00;;
57969;SDS011;43777;42.656;23.264;2022-09-17T10:46:49;2.88;;;1.10;;
57969;SDS011;43777;42.656;23.264;2022-09-17T10:51:45;3.78;;;1.20;;
57969;SDS011;43777;42.656;23.264;2022-09-17T10:56:39;3.17;;;1.20;;
57969;SDS011;43777;42.656;23.264;2022-09-17T10:59:18;5.07;;;1.40;;
57969;SDS011;43777;42.656;23.264;2022-09-17T11:04:30;8.57;;;5.30;;
57969;SDS011;43777;42.656;23.264;2022-09-17T11:15:04;8.23;;;6.43;;
57969;SDS011;43777;42.656;23.264;2022-09-17T11:28:01;5.00;;;3.72;;
57969;SDS011;43777;42.656;23.264;2022-09-17T11:30:32;7.13;;;4.65;;
57969;SDS011;43777;42.656;23.264;2022-09-17T11:35:34;4.95;;;2.75;;
57969;SDS011;43777;42.656;23.264;2022-09-17T11:38:09;2.83;;;1.50;;
57969;SDS011;43777;42.656;23.264;2022-09-17T11:40:41;3.38;;;1.30;;
57969;SDS011;43777;42.656;23.264;2022-09-17T11:43:25;4.93;;;1.40;;
57969;SDS011;43777;42.656;23.264;2022-09-17T11:45:55;5.15;;;2.70;;
57969;SDS011;43777;42.656;23.264;2022-09-17T11:48:37;7.63;;;3.72;;
57969;SDS011;43777;42.656;23.264;2022-09-17T11:56:16;10.70;;;4.97;;
57969;SDS011;43777;42.656;23.264;2022-09-17T11:58:48;9.35;;;4.68;;
57969;SDS011;43777;42.656;23.264;2022-09-17T12:01:18;5.75;;;3.90;;
57969;SDS011;43777;42.656;23.264;2022-09-17T12:03:50;5.45;;;4.00;;
57969;SDS011;43777;42.656;23.264;2022-09-17T12:06:19;6.65;;;3.40;;
57969;SDS011;43777;42.656;23.264;2022-09-17T12:14:21;1.40;;;0.70;;
57969;SDS011;43777;42.656;23.264;2022-09-17T12:16:49;4.57;;;0.73;;
57969;SDS011;43777;42.656;23.264;2022-09-17T12:19:21;2.47;;;0.80;;
57969;SDS011;43777;42.656;23.264;2022-09-17T12:29:40;2.17;;;0.60;;
57969;SDS011;43777;42.656;23.264;2022-09-17T12:37:22;1.60;;;0.52;;
57969;SDS011;43777;42.656;23.264;2022-09-17T12:57:57;2.17;;;0.65;;
57969;SDS011;43777;42.656;23.264;2022-09-17T13:00:25;2.38;;;0.80;;
57969;SDS011;43777;42.656;23.264;2022-09-17T13:18:28;1.73;;;0.70;;
57969;SDS011;43777;42.656;23.264;2022-09-17T13:23:32;1.63;;;1.00;;
57969;SDS011;43777;42.656;23.264;2022-09-17T13:25:59;1.60;;;0.50;;
57969;SDS011;43777;42.656;23.264;2022-09-17T13:28:38;1.10;;;0.60;;
57969;SDS011;43777;42.656;23.264;2022-09-17T13:31:04;3.55;;;0.50;;
57969;SDS011;43777;42.656;23.264;2022-09-17T13:39:00;0.98;;;0.52;;
57969;SDS011;43777;42.656;23.264;2022-09-17T13:41:27;1.20;;;0.75;;
57969;SDS011;43777;42.656;23.264;2022-09-17T13:43:54;1.73;;;0.70;;
57969;SDS011;43777;42.656;23.264;2022-09-17T13:46:21;2.50;;;1.40;;
57969;SDS011;43777;42.656;23.264;2022-09-17T13:48:49;2.35;;;1.10;;
57969;SDS011;43777;42.656;23.264;2022-09-17T13:53:59;0.70;;;0.50;;
57969;SDS011;43777;42.656;23.264;2022-09-17T13:56:34;2.33;;;0.70;;
57969;SDS011;43777;42.656;23.264;2022-09-17T13:59:34;2.10;;;0.77;;
57969;SDS011;43777;42.656;23.264;2022-09-17T14:01:58;1.85;;;0.65;;
57969;SDS011;43777;42.656;23.264;2022-09-17T14:09:52;0.75;;;0.43;;
57969;SDS011;43777;42.656;23.264;2022-09-17T14:17:56;1.05;;;0.60;;
57969;SDS011;43777;42.656;23.264;2022-09-17T14:20:22;1.35;;;0.70;;
57969;SDS011;43777;42.656;23.264;2022-09-17T14:22:56;2.05;;;1.00;;
57969;SDS011;43777;42.656;23.264;2022-09-17T14:25:26;3.20;;;1.92;;
57969;SDS011;43777;42.656;23.264;2022-09-17T14:27:57;5.10;;;2.08;;
57969;SDS011;43777;42.656;23.264;2022-09-17T14:30:30;7.03;;;2.50;;
57969;SDS011;43777;42.656;23.264;2022-09-17T14:38:20;4.38;;;2.30;;
57969;SDS011;43777;42.656;23.264;2022-09-17T14:40:47;5.63;;;2.70;;
57969;SDS011;43777;42.656;23.264;2022-09-17T14:43:17;4.38;;;2.42;;
57969;SDS011;43777;42.656;23.264;2022-09-17T14:45:46;6.88;;;4.40;;
57969;SDS011;43777;42.656;23.264;2022-09-17T14:48:17;9.05;;;5.10;;
57969;SDS011;43777;42.656;23.264;2022-09-17T14:50:44;9.00;;;5.10;;
57969;SDS011;43777;42.656;23.264;2022-09-17T14:53:15;4.82;;;3.08;;
57969;SDS011;43777;42.656;23.264;2022-09-17T14:55:42;3.50;;;2.67;;
57969;SDS011;43777;42.656;23.264;2022-09-17T14:58:24;6.10;;;3.22;;
57969;SDS011;43777;42.656;23.264;2022-09-17T15:00:51;7.10;;;3.65;;
57969;SDS011;43777;42.656;23.264;2022-09-17T15:03:21;10.55;;;6.97;;
57969;SDS011;43777;42.656;23.264;2022-09-17T15:05:47;8.65;;;5.53;;
57969;SDS011;43777;42.656;23.264;2022-09-17T15:08:17;7.18;;;5.68;;
57969;SDS011;43777;42.656;23.264;2022-09-17T15:13:15;6.53;;;3.70;;
57969;SDS011;43777;42.656;23.264;2022-09-17T15:20:59;7.28;;;4.53;;
57969;SDS011;43777;42.656;23.264;2022-09-17T15:23:26;8.73;;;4.90;;
57969;SDS011;43777;42.656;23.264;2022-09-17T15:25:53;9.00;;;4.70;;
57969;SDS011;43777;42.656;23.264;2022-09-17T15:30:49;5.75;;;3.20;;
57969;SDS011;43777;42.656;23.264;2022-09-17T15:33:15;7.80;;;3.25;;
57969;SDS011;43777;42.656;23.264;2022-09-17T15:35:57;4.78;;;2.92;;
57969;SDS011;43777;42.656;23.264;2022-09-17T15:38:25;5.78;;;2.75;;
57969;SDS011;43777;42.656;23.264;2022-09-17T15:40:51;8.18;;;2.75;;
57969;SDS011;43777;42.656;23.264;2022-09-17T15:43:31;8.88;;;2.83;;
57969;SDS011;43777;42.656;23.264;2022-09-17T15:46:18;3.55;;;2.30;;
57969;SDS011;43777;42.656;23.264;2022-09-17T15:48:44;4.18;;;2.70;;
57969;SDS011;43777;42.656;23.264;2022-09-17T15:53:58;4.85;;;2.60;;
57969;SDS011;43777;42.656;23.264;2022-09-17T15:56:28;4.30;;;2.10;;
57969;SDS011;43777;42.656;23.264;2022-09-17T15:58:58;2.83;;;2.22;;
57969;SDS011;43777;42.656;23.264;2022-09-17T16:08:53;3.00;;;1.00;;
57969;SDS011;43777;42.656;23.264;2022-09-17T16:11:20;2.63;;;1.13;;
57969;SDS011;43777;42.656;23.264;2022-09-17T16:13:47;2.83;;;2.40;;
57969;SDS011;43777;42.656;23.264;2022-09-17T16:16:14;6.22;;;2.92;;
57969;SDS011;43777;42.656;23.264;2022-09-17T16:18:40;2.45;;;1.55;;
57969;SDS011;43777;42.656;23.264;2022-09-17T16:21:09;3.65;;;2.35;;
57969;SDS011;43777;42.656;23.264;2022-09-17T16:23:35;3.83;;;1.80;;
57969;SDS011;43777;42.656;23.264;2022-09-17T16:26:02;2.20;;;2.00;;
57969;SDS011;43777;42.656;23.264;2022-09-17T16:28:28;3.22;;;2.22;;
57969;SDS011;43777;42.656;23.264;2022-09-17T16:30:54;5.07;;;2.78;;
57969;SDS011;43777;42.656;23.264;2022-09-17T16:33:21;3.58;;;2.85;;
57969;SDS011;43777;42.656;23.264;2022-09-17T16:35:47;4.55;;;2.90;;
57969;SDS011;43777;42.656;23.264;2022-09-17T16:38:13;5.85;;;3.55;;
57969;SDS011;43777;42.656;23.264;2022-09-17T16:40:40;8.18;;;3.40;;
57969;SDS011;43777;42.656;23.264;2022-09-17T16:43:06;7.35;;;4.10;;
57969;SDS011;43777;42.656;23.264;2022-09-17T16:45:33;7.63;;;3.42;;
57969;SDS011;43777;42.656;23.264;2022-09-17T16:47:59;7.82;;;3.95;;
57969;SDS011;43777;42.656;23.264;2022-09-17T16:50:25;4.32;;;3.13;;
57969;SDS011;43777;42.656;23.264;2022-09-17T16:52:51;5.70;;;2.83;;
57969;SDS011;43777;42.656;23.264;2022-09-17T16:55:18;7.55;;;3.28;;
57969;SDS011;43777;42.656;23.264;2022-09-17T16:57:44;5.40;;;2.42;;
57969;SDS011;43777;42.656;23.264;2022-09-17T17:00:11;4.82;;;2.38;;
57969;SDS011;43777;42.656;23.264;2022-09-17T17:02:40;3.95;;;3.10;;
57969;SDS011;43777;42.656;23.264;2022-09-17T17:05:07;4.70;;;3.60;;
57969;SDS011;43777;42.656;23.264;2022-09-17T17:07:34;5.93;;;2.40;;
57969;SDS011;43777;42.656;23.264;2022-09-17T17:10:01;6.57;;;2.15;;
57969;SDS011;43777;42.656;23.264;2022-09-17T17:12:28;3.83;;;2.10;;
57969;SDS011;43777;42.656;23.264;2022-09-17T17:14:55;6.55;;;2.47;;
57969;SDS011;43777;42.656;23.264;2022-09-17T17:17:21;2.78;;;1.50;;
57969;SDS011;43777;42.656;23.264;2022-09-17T17:19:47;3.40;;;1.60;;
57969;SDS011;43777;42.656;23.264;2022-09-17T17:22:13;2.20;;;1.50;;
57969;SDS011;43777;42.656;23.264;2022-09-17T17:24:39;4.88;;;1.88;;
57969;SDS011;43777;42.656;23.264;2022-09-17T17:27:05;4.05;;;1.80;;
57969;SDS011;43777;42.656;23.264;2022-09-17T17:29:35;1.77;;;1.48;;
57969;SDS011;43777;42.656;23.264;2022-09-17T17:32:01;5.35;;;2.78;;
57969;SDS011;43777;42.656;23.264;2022-09-17T17:34:28;4.40;;;3.50;;
57969;SDS011;43777;42.656;23.264;2022-09-17T17:36:55;7.20;;;4.65;;
57969;SDS011;43777;42.656;23.264;2022-09-17T17:39:21;6.75;;;4.50;;
57969;SDS011;43777;42.656;23.264;2022-09-17T17:41:47;6.68;;;4.07;;
57969;SDS011;43777;42.656;23.264;2022-09-17T17:44:13;6.07;;;4.45;;
57969;SDS011;43777;42.656;23.264;2022-09-17T17:46:39;6.03;;;3.95;;
57969;SDS011;43777;42.656;23.264;2022-09-17T17:49:05;7.85;;;4.35;;
57969;SDS011;43777;42.656;23.264;2022-09-17T17:51:32;7.45;;;4.63;;
57969;SDS011;43777;42.656;23.264;2022-09-17T17:53:59;2.83;;;2.42;;
57969;SDS011;43777;42.656;23.264;2022-09-17T17:56:25;4.60;;;3.00;;
57969;SDS011;43777;42.656;23.264;2022-09-17T17:58:54;5.90;;;3.65;;
57969;SDS011;43777;42.656;23.264;2022-09-17T18:01:23;2.72;;;1.70;;
57969;SDS011;43777;42.656;23.264;2022-09-17T18:03:49;2.22;;;1.77;;
57969;SDS011;43777;42.656;23.264;2022-09-17T18:06:15;4.45;;;2.65;;
57969;SDS011;43777;42.656;23.264;2022-09-17T18:08:42;3.42;;;2.63;;
57969;SDS011;43777;42.656;23.264;2022-09-17T18:11:09;6.25;;;3.47;;
57969;SDS011;43777;42.656;23.264;2022-09-17T18:13:35;5.28;;;2.90;;